Time;durP1;ratioP1;P1;durP2;ratioP2;P2;SDS_P1;SDS_P2;PMS_P1;PMS_P2;Temp;Humidity;BMP_temperature;BMP_pressure;BME280_temperature;BME280_humidity;BME280_pressure;Samples;Min_cycle;Max_cycle;Signal;HPM_P1;HPM_P2
2022/05/31 00:03:16;;;;;;;15.98;10.52;;;9.20;99.90;;;;;;21045942;28;20043;-54
2022/05/31 00:13:19;;;;;;;16.27;10.48;;;9.10;99.90;;;;;;21033540;28;20040;-59
2022/05/31 00:23:23;;;;;;;15.05;10.07;;;8.80;99.90;;;;;;21038054;28;20393;-54
2022/05/31 00:33:27;;;;;;;14.55;9.98;;;8.70;99.90;;;;;;21034474;28;20028;-60
2022/05/31 00:43:30;;;;;;;15.32;9.20;;;8.60;99.90;;;;;;21073047;28;20562;-56
2022/05/31 00:53:40;;;;;;;12.75;8.27;;;8.60;99.90;;;;;;21045287;28;20036;-55
2022/05/31 01:03:44;;;;;;;12.40;8.07;;;8.60;99.90;;;;;;21073826;28;20035;-56
2022/05/31 01:13:47;;;;;;;12.65;8.80;;;8.60;99.90;;;;;;21048398;28;20048;-55
2022/05/31 01:24:15;;;;;;;11.95;7.63;;;8.40;99.90;;;;;;20776432;28;20078;-59
2022/05/31 01:34:45;;;;;;;12.77;8.57;;;8.40;99.90;;;;;;20788522;28;20053;-59
2022/05/31 01:44:53;;;;;;;12.27;7.88;;;8.60;99.90;;;;;;20785984;28;20115;-59
2022/05/31 01:54:55;;;;;;;11.77;7.40;;;8.80;99.90;;;;;;20828391;28;20052;-59
2022/05/31 02:05:01;;;;;;;12.35;8.27;;;8.90;99.90;;;;;;21053093;28;20143;-59
2022/05/31 02:15:05;;;;;;;12.30;8.95;;;9.00;99.90;;;;;;21051686;28;20052;-54
2022/05/31 02:25:09;;;;;;;17.10;10.27;;;9.00;99.90;;;;;;21042705;28;20039;-60
2022/05/31 02:35:13;;;;;;;15.43;10.77;;;9.10;99.90;;;;;;21009044;28;20544;-60
2022/05/31 02:45:15;;;;;;;15.13;9.80;;;9.10;99.90;;;;;;21042272;28;20051;-59
2022/05/31 02:55:20;;;;;;;22.42;13.95;;;8.90;99.90;;;;;;21048377;28;20102;-59
2022/05/31 03:05:41;;;;;;;22.05;14.95;;;8.70;99.90;;;;;;20915795;28;20386;-59
2022/05/31 03:15:46;;;;;;;22.70;15.48;;;8.70;99.90;;;;;;20888267;28;20044;-53
2022/05/31 03:25:50;;;;;;;23.23;15.40;;;8.60;99.90;;;;;;20887746;28;20650;-56
2022/05/31 03:35:53;;;;;;;20.00;13.82;;;8.60;99.90;;;;;;20907674;28;20105;-59
2022/05/31 03:46:03;;;;;;;22.13;14.23;;;8.80;99.90;;;;;;21044840;28;20089;-55
2022/05/31 03:56:12;;;;;;;17.40;11.93;;;9.00;99.90;;;;;;21037332;28;20036;-59
2022/05/31 04:06:18;;;;;;;19.20;11.95;;;9.20;99.90;;;;;;21060945;28;20105;-59
2022/05/31 04:16:22;;;;;;;16.92;11.98;;;9.40;99.90;;;;;;21039913;28;20443;-59
2022/05/31 04:26:35;;;;;;;16.67;10.35;;;9.70;99.90;;;;;;21057133;28;20036;-59
2022/05/31 04:36:57;;;;;;;16.75;10.30;;;9.90;99.90;;;;;;21059677;28;20488;-60
2022/05/31 04:47:13;;;;;;;13.60;9.63;;;10.00;99.90;;;;;;21041293;28;20039;-54
2022/05/31 04:57:23;;;;;;;14.15;9.82;;;10.30;99.90;;;;;;21035350;28;20085;-59
2022/05/31 05:07:29;;;;;;;12.38;9.30;;;10.70;99.90;;;;;;21031657;28;20051;-55
2022/05/31 05:17:33;;;;;;;18.63;9.25;;;10.80;99.90;;;;;;21070942;28;20040;-54
2022/05/31 05:27:36;;;;;;;13.02;8.00;;;11.00;99.90;;;;;;21057127;28;20089;-59
2022/05/31 05:37:48;;;;;;;9.30;6.50;;;11.70;99.90;;;;;;21051447;28;20052;-56
2022/05/31 05:47:54;;;;;;;7.53;5.85;;;12.60;99.90;;;;;;21029797;28;20098;-57
2022/05/31 05:57:57;;;;;;;9.23;6.10;;;13.00;99.90;;;;;;21025182;28;20099;-60
2022/05/31 06:08:32;;;;;;;7.85;5.72;;;13.30;99.90;;;;;;21044747;28;20044;-57
2022/05/31 06:18:44;;;;;;;7.78;5.22;;;13.60;99.90;;;;;;21039712;28;20089;-58
2022/05/31 06:28:47;;;;;;;6.20;5.00;;;14.30;99.90;;;;;;21043061;28;20612;-57
2022/05/31 06:38:50;;;;;;;7.15;5.25;;;15.00;99.90;;;;;;21067510;28;20090;-59
2022/05/31 06:48:53;;;;;;;8.25;4.45;;;15.10;99.90;;;;;;21013942;28;20035;-58
2022/05/31 06:59:15;;;;;;;6.75;5.50;;;16.80;99.90;;;;;;21037088;28;20097;-61
2022/05/31 07:09:18;;;;;;;7.32;5.70;;;16.50;99.90;;;;;;21040244;28;20028;-61
2022/05/31 07:19:23;;;;;;;8.10;5.30;;;16.00;99.90;;;;;;21044552;28;20036;-61
2022/05/31 07:29:25;;;;;;;6.40;4.65;;;16.20;99.90;;;;;;21020597;28;20040;-61
2022/05/31 07:39:29;;;;;;;6.95;5.00;;;16.20;99.90;;;;;;21037565;28;20148;-61
2022/05/31 07:49:31;;;;;;;8.23;5.22;;;15.80;99.90;;;;;;21024907;28;20455;-62
2022/05/31 07:59:55;;;;;;;9.68;6.18;;;15.90;99.90;;;;;;21028422;28;20086;-61
2022/05/31 08:10:17;;;;;;;7.70;5.25;;;17.20;99.90;;;;;;21036769;28;20392;-62
2022/05/31 08:20:20;;;;;;;11.25;5.90;;;16.80;99.90;;;;;;21043069;28;20032;-62
2022/05/31 08:30:23;;;;;;;8.65;5.65;;;17.60;99.90;;;;;;21038402;28;20108;-62
2022/05/31 08:40:25;;;;;;;7.75;5.40;;;18.10;99.90;;;;;;21057025;28;20040;-62
2022/05/31 09:00:58;;;;;;;6.82;5.38;;;19.40;99.90;;;;;;21037647;28;20036;-61
2022/05/31 09:11:03;;;;;;;6.75;4.80;;;18.80;99.90;;;;;;21052750;28;20093;-59
2022/05/31 09:21:34;;;;;;;5.63;4.40;;;18.30;99.90;;;;;;21041648;28;20488;-61
2022/05/31 09:31:43;;;;;;;6.10;4.68;;;17.50;99.90;;;;;;21036836;28;20032;-62
2022/05/31 09:42:03;;;;;;;5.00;4.47;;;17.30;99.90;;;;;;21056427;28;20043;-62
2022/05/31 09:52:24;;;;;;;8.23;4.55;;;18.00;99.90;;;;;;21050720;28;20093;-61
2022/05/31 10:02:35;;;;;;;6.53;4.57;;;17.60;99.90;;;;;;21038186;28;20036;-55
2022/05/31 10:12:50;;;;;;;7.53;4.72;;;17.80;99.90;;;;;;21037816;28;20040;-59
2022/05/31 10:22:59;;;;;;;5.85;4.50;;;17.20;99.90;;;;;;21045400;28;20040;-56
2022/05/31 10:33:24;;;;;;;6.82;4.43;;;16.50;99.90;;;;;;21050132;28;20113;-58
2022/05/31 10:43:45;;;;;;;5.35;4.30;;;15.90;99.90;;;;;;21049444;28;20044;-58
2022/05/31 10:53:57;;;;;;;6.68;5.00;;;15.90;99.90;;;;;;21034503;28;20558;-56
2022/05/31 11:04:02;;;;;;;6.40;5.45;;;16.50;99.90;;;;;;21061932;28;20396;-61
2022/05/31 11:14:23;;;;;;;6.22;5.13;;;17.30;99.90;;;;;;21042949;28;20032;-60
2022/05/31 11:24:47;;;;;;;8.73;5.57;;;17.40;99.90;;;;;;21031377;28;20101;-57
2022/05/31 11:35:28;;;;;;;12.38;7.13;;;16.70;99.90;;;;;;21032868;28;20476;-61
2022/05/31 11:45:31;;;;;;;9.52;7.20;;;17.70;99.90;;;;;;21037849;28;20052;-60
2022/05/31 11:56:16;;;;;;;10.32;6.90;;;19.00;99.90;;;;;;21036580;28;20062;-58
2022/05/31 12:06:45;;;;;;;8.73;6.72;;;19.10;99.90;;;;;;20704655;28;20065;-60
2022/05/31 12:16:48;;;;;;;;;;;19.20;99.90;;;;;;20682811;28;20128;-60
2022/05/31 12:26:53;;;;;;;9.32;6.03;;;19.70;99.90;;;;;;20660364;28;19949;-58
2022/05/31 12:37:02;;;;;;;6.97;5.63;;;19.70;99.90;;;;;;20882816;28;20039;-58
2022/05/31 12:47:22;;;;;;;;;;;20.90;99.90;;;;;;21051669;28;20121;-58
2022/05/31 12:58:26;;;;;;;8.70;6.50;;;20.60;99.90;;;;;;21056320;28;20231;-60
2022/05/31 13:08:13;;;;;;;8.07;7.00;;;19.90;99.90;;;;;;21044259;28;20719;-60
2022/05/31 13:28:43;;;;;;;9.00;7.60;;;20.20;99.90;;;;;;21063677;28;20032;-59
2022/05/31 13:38:49;;;;;;;9.77;8.23;;;19.70;99.90;;;;;;21041161;28;20036;-57
2022/05/31 13:48:55;;;;;;;10.18;7.18;;;18.70;99.90;;;;;;21033172;28;20058;-56
2022/05/31 13:58:57;;;;;;;10.05;8.45;;;18.20;99.90;;;;;;21054121;28;20028;-59
2022/05/31 14:09:00;;;;;;;11.65;8.23;;;17.90;99.90;;;;;;21050256;28;20039;-59
2022/05/31 14:19:04;;;;;;;10.93;8.40;;;17.80;99.90;;;;;;21040492;28;20032;-58
2022/05/31 14:29:19;;;;;;;11.80;7.93;;;18.00;99.90;;;;;;21061745;28;20041;-57
2022/05/31 14:39:26;;;;;;;10.27;7.28;;;18.30;99.90;;;;;;21062098;28;20044;-58
2022/05/31 14:49:29;;;;;;;12.18;7.72;;;19.10;99.90;;;;;;21043644;28;20097;-60
2022/05/31 14:59:32;;;;;;;10.85;6.78;;;21.00;99.90;;;;;;21051612;28;20093;-61
2022/05/31 15:09:36;;;;;;;6.78;5.25;;;20.40;99.90;;;;;;21046772;28;20480;-58
2022/05/31 15:19:40;;;;;;;8.98;5.97;;;23.00;98.50;;;;;;21069479;28;20040;-58
2022/05/31 15:29:43;;;;;;;7.78;5.55;;;24.10;96.10;;;;;;21046935;28;20036;-60
2022/05/31 15:39:48;;;;;;;6.28;5.68;;;22.10;95.90;;;;;;21038590;28;20048;-60
2022/05/31 15:49:50;;;;;;;10.02;6.18;;;19.50;99.90;;;;;;21057369;28;20504;-56
2022/05/31 15:59:53;;;;;;;13.48;7.30;;;18.30;99.90;;;;;;21035027;28;20040;-59
2022/05/31 16:09:56;;;;;;;8.70;6.80;;;18.20;99.90;;;;;;21030798;28;20032;-59
2022/05/31 16:19:59;;;;;;;10.95;8.52;;;17.40;99.90;;;;;;21040035;28;20044;-55
2022/05/31 16:30:01;;;;;;;11.60;8.57;;;16.50;99.90;;;;;;21031487;28;20081;-59
2022/05/31 16:50:27;;;;;;;10.80;8.55;;;15.80;99.90;;;;;;21036191;28;20113;-55
2022/05/31 17:00:30;;;;;;;12.25;9.88;;;15.20;99.90;;;;;;21034697;28;20032;-55
2022/05/31 17:20:57;;;;;;;10.43;7.40;;;15.40;99.90;;;;;;21036783;28;20040;-56
2022/05/31 17:30:59;;;;;;;10.05;6.90;;;15.40;99.90;;;;;;21047552;28;20024;-56
2022/05/31 17:41:29;;;;;;;10.13;7.28;;;15.40;99.90;;;;;;21065791;28;20040;-56
2022/05/31 17:51:34;;;;;;;13.15;8.75;;;15.10;99.90;;;;;;21032711;28;20113;-56
2022/05/31 18:01:37;;;;;;;15.32;8.10;;;15.30;99.90;;;;;;21058823;28;20055;-55
2022/05/31 18:11:40;;;;;;;13.55;8.43;;;15.10;99.90;;;;;;21048875;28;20035;-58
2022/05/31 18:21:44;;;;;;;14.80;9.88;;;14.30;99.90;;;;;;21041484;28;20040;-55
2022/05/31 18:31:47;;;;;;;20.70;12.45;;;13.50;99.90;;;;;;21035765;28;20093;-58
2022/05/31 18:41:51;;;;;;;19.02;12.32;;;12.70;99.90;;;;;;21038967;28;20053;-58
2022/05/31 18:51:53;;;;;;;23.23;14.80;;;12.20;99.90;;;;;;21049460;28;20057;-52
2022/05/31 19:02:15;;;;;;;21.92;14.50;;;11.60;99.90;;;;;;21039587;28;20043;-53
2022/05/31 19:12:17;;;;;;;27.63;17.00;;;11.10;99.90;;;;;;21035517;28;20363;-58
2022/05/31 19:22:21;;;;;;;30.50;19.33;;;10.80;99.90;;;;;;21027265;28;20040;-58
2022/05/31 19:32:24;;;;;;;27.60;17.50;;;10.60;99.90;;;;;;21043588;28;20089;-58
2022/05/31 19:42:31;;;;;;;29.40;19.27;;;10.50;99.90;;;;;;21043783;28;20201;-58
2022/05/31 19:52:34;;;;;;;32.63;19.48;;;10.60;99.90;;;;;;21033772;28;20471;-58
2022/05/31 20:02:38;;;;;;;37.35;23.13;;;10.50;99.90;;;;;;21045942;28;20089;-54
2022/05/31 20:12:45;;;;;;;24.13;16.00;;;10.40;99.90;;;;;;21039933;28;20028;-57
2022/05/31 20:22:48;;;;;;;33.35;20.75;;;10.80;99.90;;;;;;21043590;28;20094;-54
2022/05/31 20:32:51;;;;;;;26.80;17.80;;;11.20;99.90;;;;;;21036710;28;20097;-57
2022/05/31 20:42:58;;;;;;;27.10;16.10;;;11.30;99.90;;;;;;21059003;28;20077;-59
2022/05/31 20:53:01;;;;;;;37.88;21.75;;;11.20;99.90;;;;;;21061093;28;20089;-57
2022/05/31 21:03:04;;;;;;;24.92;16.23;;;11.00;99.90;;;;;;21083460;28;20480;-54
2022/05/31 21:13:09;;;;;;;23.00;15.68;;;11.30;99.90;;;;;;21073552;28;20373;-58
2022/05/31 21:23:16;;;;;;;18.48;12.23;;;11.50;99.90;;;;;;21099157;28;20104;-54
2022/05/31 21:33:18;;;;;;;19.55;13.05;;;11.90;99.90;;;;;;21087580;28;20109;-54
2022/05/31 21:43:21;;;;;;;22.67;13.93;;;12.20;99.90;;;;;;21075245;28;20425;-55
2022/05/31 21:53:50;;;;;;;17.98;12.45;;;12.20;99.90;;;;;;21074794;28;20105;-53
2022/05/31 22:03:53;;;;;;;26.52;14.02;;;12.00;99.90;;;;;;21083561;28;20100;-53
2022/05/31 22:13:58;;;;;;;22.02;15.00;;;11.60;99.90;;;;;;21063446;28;20036;-53
2022/05/31 22:24:02;;;;;;;25.05;16.70;;;11.10;99.90;;;;;;21073191;28;20040;-57
2022/05/31 22:34:05;;;;;;;35.72;18.90;;;10.70;99.90;;;;;;21087645;28;20028;-51
2022/05/31 22:44:10;;;;;;;28.67;15.80;;;10.50;99.90;;;;;;21051009;28;20120;-55
2022/05/31 22:54:13;;;;;;;37.67;21.58;;;10.40;99.90;;;;;;21038891;28;20036;-52
2022/05/31 23:04:18;;;;;;;43.13;26.13;;;10.70;99.90;;;;;;21037121;28;20036;-53
2022/05/31 23:14:21;;;;;;;46.03;28.58;;;11.20;99.90;;;;;;21077001;28;20393;-56
2022/05/31 23:24:24;;;;;;;44.70;27.42;;;11.80;99.90;;;;;;21040357;28;20097;-57
2022/05/31 23:34:32;;;;;;;38.83;23.88;;;11.80;99.90;;;;;;21029766;28;20090;-52
2022/05/31 23:44:37;;;;;;;53.00;33.00;;;11.90;99.90;;;;;;21070406;28;20074;-53
2022/05/31 23:54:39;;;;;;;48.63;29.90;;;11.90;99.90;;;;;;21057872;28;20101;-53
